Time;durP1;ratioP1;P1;durP2;ratioP2;P2;SDS_P1;SDS_P2;PMS_P1;PMS_P2;Temp;Humidity;BMP_temperature;BMP_pressure;BME280_temperature;BME280_humidity;BME280_pressure;Samples;Min_cycle;Max_cycle;Signal;HPM_P1;HPM_P2
2022/11/28 00:01:24;;;;;;;9.63;9.02;;;;;;;;;;4992975;28;20038;-57
2022/11/28 00:03:49;;;;;;;9.48;8.88;;;;;;;;;;4992392;28;20042;-58
2022/11/28 00:06:14;;;;;;;9.85;9.15;;;;;;;;;;4994326;28;20038;-58
2022/11/28 00:08:40;;;;;;;9.95;9.25;;;;;;;;;;4992136;28;20226;-58
2022/11/28 00:11:09;;;;;;;9.77;9.07;;;;;;;;;;4994098;28;20084;-57
2022/11/28 00:13:35;;;;;;;10.90;10.20;;;;;;;;;;4992674;28;20030;-58
2022/11/28 00:16:03;;;;;;;8.95;8.35;;;;;;;;;;4995115;28;20443;-58
2022/11/28 00:18:29;;;;;;;9.43;8.82;;;;;;;;;;4993150;28;20267;-57
2022/11/28 00:21:06;;;;;;;10.43;9.73;;;;;;;;;;4991908;28;20412;-58
2022/11/28 00:23:32;;;;;;;10.15;9.45;;;;;;;;;;4991817;28;20099;-58
2022/11/28 00:26:00;;;;;;;10.98;10.27;;;;;;;;;;4990703;28;20111;-58
2022/11/28 00:28:26;;;;;;;11.75;10.85;;;;;;;;;;4992824;28;20372;-58
2022/11/28 00:30:51;;;;;;;10.15;9.55;;;;;;;;;;4993490;28;20030;-58
2022/11/28 00:33:17;;;;;;;11.43;10.73;;;;;;;;;;4994108;28;20442;-57
2022/11/28 00:35:42;;;;;;;10.15;9.45;;;;;;;;;;4992379;28;20132;-58
2022/11/28 00:38:07;;;;;;;11.10;10.30;;;;;;;;;;4994831;28;20124;-58
2022/11/28 00:40:33;;;;;;;10.57;9.88;;;;;;;;;;4993599;28;20041;-58
2022/11/28 00:42:58;;;;;;;10.85;10.15;;;;;;;;;;4991169;28;20043;-57
2022/11/28 00:45:23;;;;;;;9.45;8.80;;;;;;;;;;4992804;28;20018;-57
2022/11/28 00:47:49;;;;;;;9.68;8.98;;;;;;;;;;4993570;28;20518;-57
2022/11/28 00:50:14;;;;;;;9.38;8.77;;;;;;;;;;4992875;28;20136;-58
2022/11/28 00:52:40;;;;;;;10.07;9.20;;;;;;;;;;4991849;28;20474;-58
2022/11/28 00:55:05;;;;;;;9.13;8.52;;;;;;;;;;4995627;28;20499;-58
2022/11/28 00:57:31;;;;;;;9.50;8.90;;;;;;;;;;4993035;28;20633;-58
2022/11/28 00:59:56;;;;;;;10.05;9.40;;;;;;;;;;4992786;28;20034;-58
2022/11/28 01:02:21;;;;;;;9.98;9.32;;;;;;;;;;4990639;28;20029;-57
2022/11/28 01:04:47;;;;;;;10.45;9.75;;;;;;;;;;4994705;28;20089;-59
2022/11/28 01:07:12;;;;;;;10.50;9.80;;;;;;;;;;4992337;28;20125;-58
2022/11/28 01:09:37;;;;;;;10.52;9.82;;;;;;;;;;4997109;28;20109;-58
2022/11/28 01:12:03;;;;;;;9.95;9.35;;;;;;;;;;4990347;28;20034;-57
2022/11/28 01:14:29;;;;;;;11.27;10.55;;;;;;;;;;4993447;28;20052;-58
2022/11/28 01:16:54;;;;;;;11.63;10.90;;;;;;;;;;4992471;28;20606;-58
2022/11/28 01:19:20;;;;;;;10.05;9.45;;;;;;;;;;4993373;28;20034;-58
2022/11/28 01:21:46;;;;;;;10.45;9.75;;;;;;;;;;4989469;28;20065;-57
2022/11/28 01:24:12;;;;;;;9.75;9.15;;;;;;;;;;4989979;28;20346;-58
2022/11/28 01:26:39;;;;;;;10.73;10.02;;;;;;;;;;4993820;28;20030;-58
2022/11/28 01:29:04;;;;;;;10.18;9.57;;;;;;;;;;4992155;28;20041;-57
2022/11/28 01:31:30;;;;;;;10.48;9.77;;;;;;;;;;4992474;28;20086;-58
2022/11/28 01:33:56;;;;;;;10.90;10.00;;;;;;;;;;4992397;28;20034;-57
2022/11/28 01:36:21;;;;;;;10.75;10.00;;;;;;;;;;4993114;28;20068;-58
2022/11/28 01:38:47;;;;;;;10.90;10.20;;;;;;;;;;4993187;28;20034;-57
2022/11/28 01:41:16;;;;;;;10.25;9.60;;;;;;;;;;4991944;28;20035;-58
2022/11/28 01:43:56;;;;;;;10.25;9.57;;;;;;;;;;4991635;28;20030;-57
2022/11/28 01:46:21;;;;;;;9.48;8.88;;;;;;;;;;4991291;28;20488;-60
2022/11/28 01:48:47;;;;;;;10.00;9.30;;;;;;;;;;4992616;28;20042;-58
2022/11/28 01:51:12;;;;;;;10.60;9.90;;;;;;;;;;4991036;28;20324;-57
2022/11/28 01:53:41;;;;;;;9.93;9.23;;;;;;;;;;4990105;28;20498;-58
2022/11/28 01:56:12;;;;;;;9.80;9.20;;;;;;;;;;4991908;28;20507;-58
2022/11/28 01:58:42;;;;;;;10.02;9.27;;;;;;;;;;4993464;28;20049;-57
2022/11/28 02:01:09;;;;;;;9.98;9.38;;;;;;;;;;4989867;28;20091;-57
2022/11/28 02:03:41;;;;;;;10.73;10.02;;;;;;;;;;4992841;28;20099;-57
2022/11/28 02:06:07;;;;;;;9.95;9.30;;;;;;;;;;4990947;28;20556;-58
2022/11/28 02:08:34;;;;;;;10.10;9.40;;;;;;;;;;4991507;28;20057;-57
2022/11/28 02:11:18;;;;;;;9.98;9.23;;;;;;;;;;4989967;28;20113;-58
2022/11/28 02:14:07;;;;;;;9.88;9.27;;;;;;;;;;4989633;28;20210;-58
2022/11/28 02:16:51;;;;;;;9.85;9.15;;;;;;;;;;4991242;28;20133;-59
2022/11/28 02:19:34;;;;;;;10.65;9.95;;;;;;;;;;4991390;28;20026;-58
2022/11/28 02:22:06;;;;;;;10.65;9.90;;;;;;;;;;4990131;28;20026;-58
2022/11/28 02:24:53;;;;;;;10.68;9.98;;;;;;;;;;4990728;28;20030;-58
2022/11/28 02:27:35;;;;;;;10.38;9.68;;;;;;;;;;4993353;28;20040;-58
2022/11/28 02:30:13;;;;;;;9.50;8.90;;;;;;;;;;4993034;28;20018;-58
2022/11/28 02:32:54;;;;;;;10.00;9.35;;;;;;;;;;4990171;28;20653;-58
2022/11/28 02:35:46;;;;;;;11.63;10.35;;;;;;;;;;4992683;28;20030;-58
2022/11/28 02:38:43;;;;;;;9.65;9.05;;;;;;;;;;4989591;28;20034;-58
2022/11/28 02:41:30;;;;;;;10.52;9.73;;;;;;;;;;4991038;28;20371;-58
2022/11/28 02:44:10;;;;;;;9.13;8.52;;;;;;;;;;4991322;28;20034;-58
2022/11/28 02:46:56;;;;;;;10.33;9.50;;;;;;;;;;4989176;28;20143;-58
2022/11/28 02:49:29;;;;;;;9.15;8.55;;;;;;;;;;4989968;28;20083;-58
2022/11/28 02:51:59;;;;;;;10.48;9.77;;;;;;;;;;4991536;28;20038;-58
2022/11/28 02:54:26;;;;;;;10.20;9.50;;;;;;;;;;4990885;28;20242;-58
2022/11/28 02:56:53;;;;;;;10.18;9.48;;;;;;;;;;4991858;28;20042;-58
2022/11/28 02:59:39;;;;;;;9.65;8.95;;;;;;;;;;4993006;28;20544;-58
2022/11/28 03:02:13;;;;;;;10.45;9.57;;;;;;;;;;4981649;28;20105;-58
2022/11/28 03:05:17;;;;;;;11.07;10.35;;;;;;;;;;4991668;28;20045;-58
2022/11/28 03:08:08;;;;;;;10.23;9.57;;;;;;;;;;4995481;28;20030;-58
2022/11/28 03:10:49;;;;;;;9.82;9.20;;;;;;;;;;4995171;28;20304;-58
2022/11/28 03:13:52;;;;;;;10.82;10.13;;;;;;;;;;4995587;28;20022;-58
2022/11/28 03:16:27;;;;;;;9.93;9.13;;;;;;;;;;4992191;28;20057;-58
2022/11/28 03:19:29;;;;;;;9.80;9.18;;;;;;;;;;4994937;28;20030;-58
2022/11/28 03:22:09;;;;;;;10.27;9.57;;;;;;;;;;4994135;28;20036;-58
2022/11/28 03:24:48;;;;;;;10.02;9.32;;;;;;;;;;4995362;28;20044;-58
2022/11/28 03:27:25;;;;;;;10.88;10.15;;;;;;;;;;4991505;28;20031;-58
2022/11/28 03:29:59;;;;;;;10.60;9.90;;;;;;;;;;4995387;28;20023;-58
2022/11/28 03:32:29;;;;;;;9.45;8.85;;;;;;;;;;4995775;28;20038;-58
2022/11/28 03:35:16;;;;;;;10.35;9.65;;;;;;;;;;4994445;28;20030;-58
2022/11/28 03:37:51;;;;;;;9.30;8.70;;;;;;;;;;4995227;28;20049;-59
2022/11/28 03:40:22;;;;;;;9.15;8.55;;;;;;;;;;4995092;28;20038;-58
2022/11/28 03:42:50;;;;;;;;;;;;;;;;;;4996204;28;20430;-58
2022/11/28 03:45:25;;;;;;;8.80;8.20;;;;;;;;;;4995969;28;19967;-58
2022/11/28 03:47:59;;;;;;;9.27;8.52;;;;;;;;;;4992939;28;20089;-58
2022/11/28 03:50:34;;;;;;;8.98;8.38;;;;;;;;;;4994234;28;20038;-58
2022/11/28 03:53:04;;;;;;;8.90;8.25;;;;;;;;;;4992530;28;20317;-58
2022/11/28 03:55:36;;;;;;;10.57;9.85;;;;;;;;;;4995798;28;20399;-58
2022/11/28 03:58:26;;;;;;;9.25;8.57;;;;;;;;;;4994150;28;20026;-58
2022/11/28 04:01:02;;;;;;;10.25;9.38;;;;;;;;;;4994506;28;20120;-58
2022/11/28 04:03:45;;;;;;;9.43;8.82;;;;;;;;;;5007962;28;20038;-58
2022/11/28 04:06:19;;;;;;;9.60;8.90;;;;;;;;;;4995357;28;20026;-58
2022/11/28 04:08:51;;;;;;;9.02;8.43;;;;;;;;;;4996236;28;20030;-58
2022/11/28 04:11:24;;;;;;;8.63;8.02;;;;;;;;;;4991406;28;20034;-58
2022/11/28 04:13:58;;;;;;;10.68;9.85;;;;;;;;;;4992289;28;20048;-58
2022/11/28 04:16:38;;;;;;;11.45;10.38;;;;;;;;;;4994912;28;20092;-58
2022/11/28 04:19:08;;;;;;;9.47;8.87;;;;;;;;;;4994677;28;20036;-58
2022/11/28 04:21:48;;;;;;;11.77;10.98;;;;;;;;;;4993364;28;20073;-58
2022/11/28 04:24:19;;;;;;;9.88;9.27;;;;;;;;;;4992939;28;20131;-58
2022/11/28 04:26:48;;;;;;;8.98;8.38;;;;;;;;;;4993827;28;20140;-58
2022/11/28 04:29:17;;;;;;;10.25;9.55;;;;;;;;;;4993444;28;20019;-58
2022/11/28 04:31:45;;;;;;;10.90;10.20;;;;;;;;;;4990808;28;20041;-58
2022/11/28 04:34:16;;;;;;;10.73;10.02;;;;;;;;;;5008735;28;20032;-58
2022/11/28 04:36:44;;;;;;;10.63;9.93;;;;;;;;;;4989129;28;20050;-58
2022/11/28 04:39:17;;;;;;;9.40;8.70;;;;;;;;;;4992213;28;20034;-58
2022/11/28 04:41:51;;;;;;;10.48;9.77;;;;;;;;;;4993236;28;20045;-58
2022/11/28 04:44:37;;;;;;;10.82;10.02;;;;;;;;;;4991838;28;20123;-58
2022/11/28 04:47:03;;;;;;;9.27;8.68;;;;;;;;;;4991339;28;20026;-58
2022/11/28 04:49:30;;;;;;;10.85;10.15;;;;;;;;;;4991431;28;20468;-58
2022/11/28 04:52:11;;;;;;;10.30;9.70;;;;;;;;;;4991035;28;20057;-58
2022/11/28 04:54:45;;;;;;;10.32;9.73;;;;;;;;;;4990155;28;20042;-58
2022/11/28 04:57:19;;;;;;;12.15;11.35;;;;;;;;;;4994804;28;20033;-58
2022/11/28 04:59:46;;;;;;;12.07;10.90;;;;;;;;;;4992500;28;20038;-58
2022/11/28 05:02:13;;;;;;;11.27;10.30;;;;;;;;;;4991551;28;20346;-58
2022/11/28 05:04:39;;;;;;;10.35;9.65;;;;;;;;;;4992229;28;20225;-58
2022/11/28 05:07:06;;;;;;;10.60;9.90;;;;;;;;;;4988945;28;20038;-58
2022/11/28 05:09:31;;;;;;;11.00;10.15;;;;;;;;;;4989812;28;20038;-58
2022/11/28 05:11:57;;;;;;;9.52;8.93;;;;;;;;;;4992480;28;20068;-58
2022/11/28 05:14:23;;;;;;;10.45;9.65;;;;;;;;;;4990249;28;20633;-58
2022/11/28 05:16:48;;;;;;;9.95;9.25;;;;;;;;;;4989906;28;20312;-58
2022/11/28 05:19:14;;;;;;;10.43;9.73;;;;;;;;;;4991843;28;20040;-58
2022/11/28 05:21:40;;;;;;;10.23;9.52;;;;;;;;;;4989784;28;20038;-58
2022/11/28 05:24:06;;;;;;;11.27;10.48;;;;;;;;;;4992333;28;20044;-58
2022/11/28 05:26:33;;;;;;;10.77;9.85;;;;;;;;;;4990318;28;20180;-58
2022/11/28 05:28:58;;;;;;;11.07;10.00;;;;;;;;;;4997620;28;20137;-58
2022/11/28 05:31:23;;;;;;;10.65;9.95;;;;;;;;;;4991407;28;20542;-58
2022/11/28 05:33:49;;;;;;;10.30;9.63;;;;;;;;;;4988035;28;20515;-58
2022/11/28 05:36:16;;;;;;;11.57;10.77;;;;;;;;;;4993076;28;20026;-58
2022/11/28 05:38:42;;;;;;;10.85;10.15;;;;;;;;;;4991701;28;20038;-58
2022/11/28 05:41:09;;;;;;;11.00;10.10;;;;;;;;;;4990365;28;20026;-58
2022/11/28 05:43:35;;;;;;;11.85;11.00;;;;;;;;;;4993461;28;20022;-58
2022/11/28 05:46:03;;;;;;;11.05;10.30;;;;;;;;;;4991165;28;20486;-58
2022/11/28 05:48:29;;;;;;;10.68;9.90;;;;;;;;;;4994373;28;20124;-58
2022/11/28 05:50:54;;;;;;;11.63;10.82;;;;;;;;;;4993325;28;20030;-58
2022/11/28 05:53:19;;;;;;;9.85;9.25;;;;;;;;;;4991203;28;20053;-58
2022/11/28 05:55:46;;;;;;;10.60;9.90;;;;;;;;;;4989983;28;20038;-58
2022/11/28 05:58:11;;;;;;;10.23;9.52;;;;;;;;;;4991923;28;20302;-58
2022/11/28 06:00:37;;;;;;;10.32;9.63;;;;;;;;;;4989890;28;20298;-58
2022/11/28 06:03:03;;;;;;;11.75;10.95;;;;;;;;;;4991761;28;20046;-58
2022/11/28 06:05:29;;;;;;;11.18;10.45;;;;;;;;;;4991487;28;20044;-58
2022/11/28 06:07:54;;;;;;;11.35;10.57;;;;;;;;;;4993489;28;20041;-58
2022/11/28 06:10:21;;;;;;;11.32;10.63;;;;;;;;;;4989198;28;20041;-58
2022/11/28 06:12:47;;;;;;;10.98;10.25;;;;;;;;;;4992268;28;20117;-58
2022/11/28 06:15:12;;;;;;;10.15;9.45;;;;;;;;;;4986365;28;20381;-58
2022/11/28 06:17:37;;;;;;;11.48;10.68;;;;;;;;;;4991246;28;20040;-58
2022/11/28 06:20:03;;;;;;;10.32;9.70;;;;;;;;;;4990882;28;20519;-58
2022/11/28 06:22:29;;;;;;;10.70;10.00;;;;;;;;;;4989696;28;20048;-58
2022/11/28 06:24:54;;;;;;;11.18;10.48;;;;;;;;;;4990127;28;20033;-58
2022/11/28 06:27:19;;;;;;;10.63;9.93;;;;;;;;;;4993332;28;20087;-58
2022/11/28 06:29:45;;;;;;;10.15;9.45;;;;;;;;;;4988601;28;20152;-58
2022/11/28 06:32:10;;;;;;;10.75;9.93;;;;;;;;;;4989695;28;20030;-58
2022/11/28 06:34:36;;;;;;;10.20;9.45;;;;;;;;;;4990051;28;20041;-58
2022/11/28 06:37:01;;;;;;;11.20;10.40;;;;;;;;;;4992288;28;20081;-58
2022/11/28 06:39:26;;;;;;;9.38;8.75;;;;;;;;;;4989965;28;20045;-58
2022/11/28 06:41:52;;;;;;;9.50;8.90;;;;;;;;;;4989958;28;20038;-58
2022/11/28 06:44:17;;;;;;;11.48;10.40;;;;;;;;;;4988388;28;20030;-58
2022/11/28 06:46:43;;;;;;;10.45;9.75;;;;;;;;;;4989287;28;20342;-58
2022/11/28 06:49:11;;;;;;;10.65;9.95;;;;;;;;;;4989242;28;20030;-58
2022/11/28 06:51:37;;;;;;;9.55;8.95;;;;;;;;;;4988193;28;20034;-58
2022/11/28 06:54:03;;;;;;;10.35;9.65;;;;;;;;;;4988634;28;20460;-59
2022/11/28 06:56:28;;;;;;;9.85;9.15;;;;;;;;;;4992296;28;20028;-59
2022/11/28 06:58:56;;;;;;;9.70;9.10;;;;;;;;;;4988653;28;20490;-58
2022/11/28 07:01:22;;;;;;;10.55;9.85;;;;;;;;;;4990662;28;20091;-59
2022/11/28 07:03:48;;;;;;;10.57;9.88;;;;;;;;;;4989425;28;20121;-59
2022/11/28 07:06:15;;;;;;;11.05;10.32;;;;;;;;;;4988366;28;20097;-59
2022/11/28 07:08:41;;;;;;;10.38;9.68;;;;;;;;;;4987722;28;20065;-59
2022/11/28 07:11:11;;;;;;;11.40;10.63;;;;;;;;;;4989917;28;20069;-58
2022/11/28 07:13:38;;;;;;;10.57;9.88;;;;;;;;;;4988345;28;20526;-59
2022/11/28 07:16:03;;;;;;;10.13;9.43;;;;;;;;;;4989136;28;20454;-59
2022/11/28 07:18:29;;;;;;;10.38;9.68;;;;;;;;;;4989504;28;20133;-60
2022/11/28 07:20:54;;;;;;;10.50;9.80;;;;;;;;;;4988412;28;20026;-59
2022/11/28 07:23:19;;;;;;;11.43;10.57;;;;;;;;;;4988632;28;20026;-58
2022/11/28 07:25:45;;;;;;;11.13;10.15;;;;;;;;;;4988505;28;20454;-59
2022/11/28 07:28:10;;;;;;;11.63;10.82;;;;;;;;;;4991411;28;20117;-59
2022/11/28 07:30:36;;;;;;;16.55;15.05;;;;;;;;;;4992384;28;20101;-59
2022/11/28 07:33:01;;;;;;;16.05;14.60;;;;;;;;;;4990017;28;20038;-59
2022/11/28 07:35:27;;;;;;;10.63;9.93;;;;;;;;;;4990313;28;20061;-59
2022/11/28 07:37:52;;;;;;;10.77;10.07;;;;;;;;;;4988911;28;20030;-58
2022/11/28 07:40:19;;;;;;;10.70;10.00;;;;;;;;;;4991661;28;20018;-59
2022/11/28 07:42:44;;;;;;;11.30;10.50;;;;;;;;;;4991646;28;20030;-59
2022/11/28 07:45:10;;;;;;;11.60;10.90;;;;;;;;;;4991329;28;20029;-58
2022/11/28 07:47:35;;;;;;;10.38;9.65;;;;;;;;;;4989732;28;20044;-58
2022/11/28 07:50:01;;;;;;;10.27;9.57;;;;;;;;;;4989666;28;20041;-58
2022/11/28 07:52:26;;;;;;;9.93;9.32;;;;;;;;;;4994998;28;20030;-59
2022/11/28 07:54:51;;;;;;;10.82;10.13;;;;;;;;;;4992547;28;20038;-59
2022/11/28 07:57:17;;;;;;;9.23;8.63;;;;;;;;;;4994138;28;20392;-59
2022/11/28 07:59:43;;;;;;;10.27;9.57;;;;;;;;;;4982576;28;20117;-59
2022/11/28 08:02:10;;;;;;;10.80;9.95;;;;;;;;;;4991573;28;20113;-58
2022/11/28 08:04:36;;;;;;;10.30;9.60;;;;;;;;;;4993440;28;20109;-59
2022/11/28 08:07:01;;;;;;;10.70;10.00;;;;;;;;;;4991205;28;20153;-59
2022/11/28 08:09:26;;;;;;;10.65;9.85;;;;;;;;;;4993350;28;20643;-59
2022/11/28 08:11:52;;;;;;;10.10;9.40;;;;;;;;;;4989156;28;20555;-59
2022/11/28 08:14:17;;;;;;;10.23;9.43;;;;;;;;;;4993453;28;20080;-59
2022/11/28 08:16:46;;;;;;;11.75;10.98;;;;;;;;;;4992276;28;20528;-58
2022/11/28 08:19:11;;;;;;;10.77;10.07;;;;;;;;;;4994991;28;20659;-58
2022/11/28 08:21:37;;;;;;;10.50;9.80;;;;;;;;;;4990714;28;20038;-58
2022/11/28 08:24:03;;;;;;;11.18;10.45;;;;;;;;;;4995120;28;20427;-58
2022/11/28 08:26:30;;;;;;;10.57;9.82;;;;;;;;;;4993074;28;20336;-59
2022/11/28 08:28:56;;;;;;;11.32;10.45;;;;;;;;;;4991554;28;20027;-58
2022/11/28 08:31:25;;;;;;;10.82;10.13;;;;;;;;;;4993498;28;20064;-58
2022/11/28 08:33:52;;;;;;;11.55;10.75;;;;;;;;;;4992273;28;20046;-58
2022/11/28 08:36:19;;;;;;;11.88;11.05;;;;;;;;;;4993128;28;20057;-58
2022/11/28 08:38:45;;;;;;;11.52;10.73;;;;;;;;;;4991052;28;20663;-58
2022/11/28 08:41:22;;;;;;;12.13;11.32;;;;;;;;;;4992761;28;20034;-58
2022/11/28 08:43:48;;;;;;;10.57;9.88;;;;;;;;;;4992713;28;20034;-58
2022/11/28 08:46:16;;;;;;;10.98;10.25;;;;;;;;;;4992030;28;20093;-58
2022/11/28 08:48:42;;;;;;;11.57;10.77;;;;;;;;;;4990620;28;20458;-58
2022/11/28 08:51:13;;;;;;;10.48;9.77;;;;;;;;;;4992312;28;20120;-58
2022/11/28 08:53:39;;;;;;;10.63;9.80;;;;;;;;;;4994372;28;20038;-58
2022/11/28 08:56:04;;;;;;;10.75;9.95;;;;;;;;;;4993011;28;20034;-58
2022/11/28 08:58:29;;;;;;;10.75;9.95;;;;;;;;;;4992793;28;20330;-57
2022/11/28 09:00:55;;;;;;;10.02;9.32;;;;;;;;;;4991640;28;20531;-57
2022/11/28 09:03:20;;;;;;;10.32;9.63;;;;;;;;;;4993985;28;20034;-58
2022/11/28 09:05:47;;;;;;;10.68;9.98;;;;;;;;;;4991690;28;20041;-58
2022/11/28 09:08:17;;;;;;;10.55;9.85;;;;;;;;;;4993757;28;20030;-58
2022/11/28 09:10:44;;;;;;;10.55;9.80;;;;;;;;;;4994501;28;20120;-58
2022/11/28 09:13:10;;;;;;;10.88;10.18;;;;;;;;;;4995224;28;20034;-58
2022/11/28 09:15:40;;;;;;;12.27;11.27;;;;;;;;;;4995341;28;20029;-58
2022/11/28 09:18:06;;;;;;;11.45;10.63;;;;;;;;;;4992157;28;20037;-58
2022/11/28 09:20:32;;;;;;;11.52;10.70;;;;;;;;;;4994929;28;20037;-58
2022/11/28 09:22:58;;;;;;;11.70;10.90;;;;;;;;;;4992524;28;20034;-58
2022/11/28 09:25:23;;;;;;;10.63;9.93;;;;;;;;;;4992646;28;20665;-58
2022/11/28 09:27:48;;;;;;;10.60;9.88;;;;;;;;;;4990233;28;20046;-58
2022/11/28 09:30:14;;;;;;;11.32;10.60;;;;;;;;;;4991488;28;20026;-58
2022/11/28 09:32:39;;;;;;;10.70;10.00;;;;;;;;;;4994192;28;20030;-57
2022/11/28 09:35:05;;;;;;;10.45;9.75;;;;;;;;;;4992555;28;20041;-57
2022/11/28 09:37:30;;;;;;;10.30;9.60;;;;;;;;;;4994988;28;20045;-58
2022/11/28 09:39:56;;;;;;;11.63;10.88;;;;;;;;;;4994734;28;20650;-58
2022/11/28 09:42:42;;;;;;;10.68;9.98;;;;;;;;;;4996751;28;20045;-58
2022/11/28 09:45:15;;;;;;;10.48;9.68;;;;;;;;;;4996341;28;20030;-58
2022/11/28 09:47:44;;;;;;;10.07;9.38;;;;;;;;;;4994437;28;20045;-58
2022/11/28 09:50:20;;;;;;;11.55;10.13;;;;;;;;;;4995159;28;20087;-58
2022/11/28 09:52:55;;;;;;;10.45;9.75;;;;;;;;;;4991178;28;20559;-58
2022/11/28 09:55:39;;;;;;;11.00;10.20;;;;;;;;;;4992101;28;20033;-58
2022/11/28 09:58:23;;;;;;;12.18;11.35;;;;;;;;;;4991875;28;20042;-62
2022/11/28 10:00:58;;;;;;;10.00;9.30;;;;;;;;;;4991182;28;20555;-62
2022/11/28 10:03:34;;;;;;;10.15;9.45;;;;;;;;;;4990442;28;20500;-62
2022/11/28 10:06:06;;;;;;;10.82;10.13;;;;;;;;;;4992709;28;20041;-61
2022/11/28 10:08:40;;;;;;;11.70;10.85;;;;;;;;;;4993904;28;20183;-62
2022/11/28 10:11:26;;;;;;;9.82;9.20;;;;;;;;;;4988846;28;20090;-61
2022/11/28 10:14:08;;;;;;;9.60;8.90;;;;;;;;;;4996117;28;20052;-61
2022/11/28 10:16:44;;;;;;;11.13;10.35;;;;;;;;;;4992768;28;20042;-61
2022/11/28 10:19:14;;;;;;;10.10;9.40;;;;;;;;;;4990874;28;20053;-61
2022/11/28 10:21:54;;;;;;;9.73;8.93;;;;;;;;;;4991909;28;20116;-61
2022/11/28 10:24:25;;;;;;;9.82;9.18;;;;;;;;;;4993850;28;20084;-61
2022/11/28 10:26:57;;;;;;;9.23;8.63;;;;;;;;;;4991801;28;20132;-62
2022/11/28 10:29:30;;;;;;;10.10;9.32;;;;;;;;;;4990760;28;20042;-61
2022/11/28 10:32:02;;;;;;;9.93;9.23;;;;;;;;;;4990482;28;20038;-62
2022/11/28 10:34:36;;;;;;;9.30;8.63;;;;;;;;;;4992672;28;20056;-61
2022/11/28 10:37:20;;;;;;;9.55;8.82;;;;;;;;;;4992786;28;20532;-61
2022/11/28 10:39:46;;;;;;;9.55;8.85;;;;;;;;;;4992609;28;20037;-61
2022/11/28 10:42:35;;;;;;;9.85;9.15;;;;;;;;;;4991706;28;20580;-62
2022/11/28 10:45:16;;;;;;;8.48;7.88;;;;;;;;;;4991253;28;20452;-61
2022/11/28 10:48:07;;;;;;;10.43;9.68;;;;;;;;;;4990024;28;20133;-61
2022/11/28 10:50:41;;;;;;;;;;;;;;;;;;4992370;28;20034;-61
2022/11/28 10:53:15;;;;;;;10.38;9.68;;;;;;;;;;4991459;28;19979;-61
2022/11/28 10:55:55;;;;;;;8.93;8.32;;;;;;;;;;4994543;28;20042;-61
2022/11/28 10:58:35;;;;;;;9.43;8.80;;;;;;;;;;4990731;28;20030;-61
2022/11/28 11:01:01;;;;;;;9.98;9.02;;;;;;;;;;4991433;28;20281;-61
2022/11/28 11:03:32;;;;;;;9.35;8.75;;;;;;;;;;4992034;28;20054;-61
2022/11/28 11:05:59;;;;;;;9.73;9.07;;;;;;;;;;4993194;28;20030;-61
2022/11/28 11:08:27;;;;;;;9.23;8.63;;;;;;;;;;4994322;28;20121;-61
2022/11/28 11:11:19;;;;;;;10.50;9.70;;;;;;;;;;4992884;28;20044;-62
2022/11/28 11:14:13;;;;;;;;;;;;;;;;;;4992110;28;20045;-62
2022/11/28 11:16:52;;;;;;;9.30;8.70;;;;;;;;;;4979461;28;19918;-61
2022/11/28 11:19:34;;;;;;;10.85;9.80;;;;;;;;;;4992330;28;20060;-62
2022/11/28 11:22:01;;;;;;;8.93;8.32;;;;;;;;;;4992872;28;20507;-61
2022/11/28 11:24:26;;;;;;;9.27;8.57;;;;;;;;;;4992782;28;20049;-62
2022/11/28 11:26:52;;;;;;;11.18;10.27;;;;;;;;;;4995196;28;20029;-62
2022/11/28 11:29:26;;;;;;;9.40;8.70;;;;;;;;;;4994466;28;20115;-60
2022/11/28 11:31:52;;;;;;;9.13;8.52;;;;;;;;;;4996548;28;20470;-61
2022/11/28 11:34:21;;;;;;;8.45;7.85;;;;;;;;;;4993148;28;20048;-62
2022/11/28 11:36:47;;;;;;;9.30;8.50;;;;;;;;;;4993745;28;20030;-61
2022/11/28 11:39:13;;;;;;;8.63;8.02;;;;;;;;;;4994832;28;20148;-63
2022/11/28 11:41:41;;;;;;;9.85;9.15;;;;;;;;;;4993094;28;20457;-61
2022/11/28 11:44:35;;;;;;;10.23;9.05;;;;;;;;;;4993723;28;20132;-63
2022/11/28 11:47:06;;;;;;;9.73;9.07;;;;;;;;;;4997038;28;20034;-60
2022/11/28 11:49:38;;;;;;;9.48;8.77;;;;;;;;;;4994288;28;20524;-61
2022/11/28 11:52:14;;;;;;;9.50;8.90;;;;;;;;;;4994531;28;20057;-60
2022/11/28 11:55:08;;;;;;;9.20;8.60;;;;;;;;;;4998623;28;20030;-63
2022/11/28 11:57:41;;;;;;;9.63;8.93;;;;;;;;;;4995722;28;20034;-59
2022/11/28 12:00:14;;;;;;;10.30;9.50;;;;;;;;;;4995960;28;20050;-59
2022/11/28 12:02:56;;;;;;;9.88;9.18;;;;;;;;;;4995215;28;20034;-59
2022/11/28 12:05:30;;;;;;;10.70;9.90;;;;;;;;;;4998897;28;20041;-59
2022/11/28 12:08:03;;;;;;;8.80;8.20;;;;;;;;;;4994466;28;20027;-59
2022/11/28 12:10:33;;;;;;;9.73;8.85;;;;;;;;;;4993667;28;20037;-61
2022/11/28 12:13:01;;;;;;;10.55;9.77;;;;;;;;;;4996256;28;20667;-61
2022/11/28 12:16:19;;;;;;;9.55;8.95;;;;;;;;;;4995122;28;20137;-61
2022/11/28 12:18:47;;;;;;;9.40;8.80;;;;;;;;;;4996098;28;20046;-63
2022/11/28 12:21:19;;;;;;;9.52;8.82;;;;;;;;;;4994635;28;20359;-62
2022/11/28 12:24:07;;;;;;;11.38;10.50;;;;;;;;;;4995617;28;20034;-61
2022/11/28 12:26:39;;;;;;;9.82;9.13;;;;;;;;;;4996216;28;20113;-63
2022/11/28 12:29:24;;;;;;;8.60;8.00;;;;;;;;;;4996777;28;20037;-63
2022/11/28 12:32:04;;;;;;;8.90;8.30;;;;;;;;;;4995643;28;20034;-63
2022/11/28 12:34:48;;;;;;;9.43;8.73;;;;;;;;;;4993599;28;20052;-59
2022/11/28 12:37:47;;;;;;;9.52;8.82;;;;;;;;;;4992667;28;20487;-61
2022/11/28 12:40:53;;;;;;;9.48;8.80;;;;;;;;;;4995921;28;20096;-62
2022/11/28 12:43:27;;;;;;;9.75;9.05;;;;;;;;;;4995850;28;20048;-62
2022/11/28 12:46:02;;;;;;;10.15;9.38;;;;;;;;;;4994143;28;20038;-62
2022/11/28 12:48:48;;;;;;;8.63;7.95;;;;;;;;;;4997321;28;20591;-62
2022/11/28 12:51:31;;;;;;;10.52;9.23;;;;;;;;;;4994685;28;20448;-61
2022/11/28 12:54:09;;;;;;;9.65;8.85;;;;;;;;;;4995603;28;20069;-62
2022/11/28 12:56:52;;;;;;;8.85;8.15;;;;;;;;;;4992152;28;20049;-62
2022/11/28 12:59:31;;;;;;;9.43;8.73;;;;;;;;;;4981740;28;20045;-61
2022/11/28 13:02:06;;;;;;;9.18;8.35;;;;;;;;;;4994046;28;20048;-62
2022/11/28 13:04:53;;;;;;;9.50;8.80;;;;;;;;;;4994616;28;20038;-61
2022/11/28 13:07:39;;;;;;;8.23;7.47;;;;;;;;;;4992098;28;20029;-61
2022/11/28 13:10:23;;;;;;;10.00;9.27;;;;;;;;;;4991530;28;20080;-62
2022/11/28 13:12:54;;;;;;;10.57;9.68;;;;;;;;;;4997938;28;20577;-60
2022/11/28 13:15:47;;;;;;;8.50;7.90;;;;;;;;;;4994144;28;20415;-61
2022/11/28 13:18:27;;;;;;;9.95;9.15;;;;;;;;;;4994204;28;20034;-63
2022/11/28 13:21:10;;;;;;;9.20;8.50;;;;;;;;;;4993397;28;20080;-64
2022/11/28 13:23:44;;;;;;;9.40;8.80;;;;;;;;;;4995304;28;20026;-63
2022/11/28 13:26:38;;;;;;;8.98;8.38;;;;;;;;;;4993945;28;20460;-64
2022/11/28 13:29:24;;;;;;;9.45;8.75;;;;;;;;;;4992982;28;20049;-64
2022/11/28 13:32:04;;;;;;;8.88;8.27;;;;;;;;;;4994303;28;20100;-64
2022/11/28 13:34:30;;;;;;;9.73;9.02;;;;;;;;;;4994169;28;20112;-64
2022/11/28 13:37:16;;;;;;;8.25;7.65;;;;;;;;;;4992680;28;20038;-65
2022/11/28 13:39:46;;;;;;;8.55;7.90;;;;;;;;;;4993813;28;20128;-63
2022/11/28 13:42:30;;;;;;;9.32;8.68;;;;;;;;;;4995723;28;20069;-64
2022/11/28 13:45:02;;;;;;;9.80;9.10;;;;;;;;;;4992015;28;20476;-64
2022/11/28 13:47:33;;;;;;;18.20;8.98;;;;;;;;;;4992943;28;20415;-64
2022/11/28 13:50:20;;;;;;;9.27;8.63;;;;;;;;;;4991583;28;20220;-65
2022/11/28 13:53:05;;;;;;;10.30;9.45;;;;;;;;;;4992376;28;20083;-63
2022/11/28 13:55:46;;;;;;;9.18;8.57;;;;;;;;;;4991321;28;20041;-59
2022/11/28 13:58:25;;;;;;;9.13;8.43;;;;;;;;;;4991506;28;20474;-59
2022/11/28 14:01:16;;;;;;;9.60;8.90;;;;;;;;;;4990767;28;20439;-59
2022/11/28 14:03:46;;;;;;;10.57;9.73;;;;;;;;;;4991986;28;20034;-60
2022/11/28 14:06:15;;;;;;;9.52;8.85;;;;;;;;;;4994608;28;20030;-59
2022/11/28 14:08:43;;;;;;;9.48;8.77;;;;;;;;;;4992684;28;20470;-59
2022/11/28 14:11:47;;;;;;;10.10;9.40;;;;;;;;;;4991069;28;20030;-59
2022/11/28 14:14:37;;;;;;;8.32;7.78;;;;;;;;;;4990223;28;20033;-59
2022/11/28 14:17:26;;;;;;;8.80;8.20;;;;;;;;;;4990562;28;20077;-59
2022/11/28 14:20:12;;;;;;;11.32;10.32;;;;;;;;;;5000717;28;20125;-60
2022/11/28 14:22:37;;;;;;;9.68;8.98;;;;;;;;;;4991830;28;20061;-59
2022/11/28 14:25:32;;;;;;;10.48;9.60;;;;;;;;;;4989391;28;20034;-59
2022/11/28 14:28:01;;;;;;;10.25;9.45;;;;;;;;;;4990743;28;20026;-59
2022/11/28 14:30:33;;;;;;;10.02;9.32;;;;;;;;;;4991744;28;20650;-59
2022/11/28 14:33:24;;;;;;;9.77;9.07;;;;;;;;;;4991748;28;20065;-58
2022/11/28 14:35:49;;;;;;;;;;;;;;;;;;4990579;28;20038;-59
2022/11/28 14:38:30;;;;;;;8.60;8.00;;;;;;;;;;4992018;28;19910;-58
2022/11/28 14:40:55;;;;;;;9.33;8.53;;;;;;;;;;4989311;28;20574;-59
2022/11/28 14:43:29;;;;;;;9.25;8.65;;;;;;;;;;4991173;28;20106;-62
2022/11/28 14:46:22;;;;;;;10.27;9.55;;;;;;;;;;4987649;28;20042;-58
2022/11/28 14:48:57;;;;;;;8.63;8.02;;;;;;;;;;4989361;28;20372;-58
2022/11/28 14:51:44;;;;;;;8.68;8.07;;;;;;;;;;4989117;28;20049;-59
2022/11/28 14:54:21;;;;;;;9.48;8.77;;;;;;;;;;4991252;28;20057;-57
2022/11/28 14:56:49;;;;;;;9.43;8.73;;;;;;;;;;4991657;28;20026;-58
2022/11/28 14:59:16;;;;;;;9.02;8.43;;;;;;;;;;4992916;28;20469;-58
2022/11/28 15:01:59;;;;;;;10.18;9.38;;;;;;;;;;4997101;28;20474;-58
2022/11/28 15:04:43;;;;;;;11.88;9.95;;;;;;;;;;4996216;28;20034;-57